createdAt,value
2023-03-20T00:02:00.872Z,9.60
2023-03-20T00:04:27.773Z,9.60
2023-03-20T00:06:54.725Z,9.60
2023-03-20T00:09:21.666Z,9.50
2023-03-20T00:11:53.831Z,9.50
2023-03-20T00:14:24.397Z,9.50
2023-03-20T00:16:51.799Z,9.50
2023-03-20T00:19:27.593Z,9.50
2023-03-20T00:21:55.449Z,9.50
2023-03-20T00:24:23.770Z,9.60
2023-03-20T00:26:52.173Z,9.60
2023-03-20T00:29:31.368Z,9.50
2023-03-20T00:31:59.311Z,9.50
2023-03-20T00:34:29.699Z,9.50
2023-03-20T00:36:58.092Z,9.50
2023-03-20T00:39:25.051Z,9.50
2023-03-20T00:42:04.485Z,9.60
2023-03-20T00:44:41.956Z,9.60
2023-03-20T00:47:28.548Z,9.60
2023-03-20T00:49:56.092Z,9.50
2023-03-20T00:52:23.816Z,9.50
2023-03-20T00:54:50.696Z,9.50
2023-03-20T00:57:24.185Z,9.40
2023-03-20T01:00:05.335Z,9.40
2023-03-20T01:02:32.899Z,9.40
2023-03-20T01:05:00.021Z,9.40
2023-03-20T01:07:27.751Z,9.40
2023-03-20T01:09:54.736Z,9.40
2023-03-20T01:12:21.615Z,9.40
2023-03-20T01:14:57.585Z,9.50
2023-03-20T01:17:27.294Z,9.40
2023-03-20T01:19:54.587Z,9.40
2023-03-20T01:22:21.805Z,9.40
2023-03-20T01:24:48.688Z,9.40
2023-03-20T01:27:18.351Z,9.40
2023-03-20T01:29:46.735Z,9.30
2023-03-20T01:32:16.811Z,9.40
2023-03-20T01:34:44.751Z,9.40
2023-03-20T01:37:23.986Z,9.40
2023-03-20T01:39:51.307Z,9.30
2023-03-20T01:42:18.573Z,9.30
2023-03-20T01:44:46.332Z,9.20
2023-03-20T01:47:19.177Z,9.20
2023-03-20T01:50:01.935Z,9.20
2023-03-20T01:52:28.852Z,9.20
2023-03-20T01:54:56.700Z,9.20
2023-03-20T01:57:25.939Z,9.20
2023-03-20T02:00:06.006Z,9.30
2023-03-20T02:02:33.416Z,9.30
2023-03-20T02:05:04.415Z,9.40
2023-03-20T02:07:34.476Z,9.40
2023-03-20T02:10:03.723Z,9.40
2023-03-20T02:12:31.676Z,9.30
2023-03-20T02:14:58.956Z,9.30
2023-03-20T02:17:25.810Z,9.20
2023-03-20T02:20:04.673Z,9.20
2023-03-20T02:23:02.413Z,9.20
2023-03-20T02:25:48.664Z,9.30
2023-03-20T02:28:40.736Z,9.30
2023-03-20T02:31:45.382Z,9.20
2023-03-20T02:34:35.942Z,9.20
2023-03-20T02:37:17.898Z,9.20
2023-03-20T02:39:47.806Z,9.20
2023-03-20T02:42:36.231Z,9.20
2023-03-20T02:45:19.402Z,9.20
2023-03-20T02:47:59.521Z,9.10
2023-03-20T02:50:36.470Z,9.20
2023-03-20T02:53:09.614Z,9.20
2023-03-20T02:55:47.148Z,9.20
2023-03-20T02:58:46.523Z,9.20
2023-03-20T03:01:25.271Z,9.20
2023-03-20T03:04:00.617Z,9.20
2023-03-20T03:06:30.969Z,9.10
2023-03-20T03:09:12.489Z,9.10
2023-03-20T03:11:45.315Z,9.10
2023-03-20T03:14:34.500Z,9.10
2023-03-20T03:17:04.326Z,9.10
2023-03-20T03:19:33.731Z,9.10
2023-03-20T03:22:00.811Z,9.10
2023-03-20T03:24:40.793Z,9.10
2023-03-20T03:27:27.824Z,9.10
2023-03-20T03:30:03.645Z,9.10
2023-03-20T03:32:43.780Z,9.10
2023-03-20T03:35:16.853Z,9.20
2023-03-20T03:38:08.302Z,9.10
2023-03-20T03:40:44.699Z,9.10
2023-03-20T03:43:25.307Z,9.10
2023-03-20T03:46:13.957Z,9.10
2023-03-20T03:48:47.740Z,9.00
2023-03-20T03:51:18.151Z,9.00
2023-03-20T03:53:51.372Z,9.00
2023-03-20T03:56:24.428Z,9.00
2023-03-20T03:58:56.747Z,9.00
2023-03-20T04:01:27.711Z,9.00
2023-03-20T04:03:59.045Z,9.00
2023-03-20T04:06:27.567Z,9.00
2023-03-20T04:08:54.514Z,8.90
2023-03-20T04:11:28.521Z,8.90
2023-03-20T04:13:56.266Z,8.80
2023-03-20T04:16:25.130Z,8.80
2023-03-20T04:18:53.282Z,8.70
2023-03-20T04:21:20.549Z,8.70
2023-03-20T04:23:47.476Z,8.60
2023-03-20T04:26:14.685Z,8.60
2023-03-20T04:28:41.677Z,8.60
2023-03-20T04:31:08.708Z,8.60
2023-03-20T04:33:36.024Z,8.50
2023-03-20T04:36:03.451Z,8.60
2023-03-20T04:38:30.373Z,8.40
2023-03-20T04:40:57.540Z,8.40
2023-03-20T04:43:24.515Z,8.40
2023-03-20T04:45:51.473Z,8.30
2023-03-20T04:48:18.968Z,8.30
2023-03-20T04:50:50.677Z,8.30
2023-03-20T04:53:19.360Z,8.20
2023-03-20T04:55:46.499Z,8.30
2023-03-20T04:58:13.409Z,8.20
2023-03-20T05:00:40.918Z,8.10
2023-03-20T05:03:07.823Z,8.10
2023-03-20T05:05:38.403Z,8.10
2023-03-20T05:08:08.503Z,8.10
2023-03-20T05:10:35.405Z,8.00
2023-03-20T05:13:02.291Z,8.00
2023-03-20T05:15:30.211Z,8.00
2023-03-20T05:17:57.106Z,8.00
2023-03-20T05:20:24.062Z,8.00
2023-03-20T05:22:51.624Z,8.00
2023-03-20T05:25:19.000Z,8.00
2023-03-20T05:27:47.024Z,8.00
2023-03-20T05:30:14.877Z,7.90
2023-03-20T05:32:43.702Z,7.90
2023-03-20T05:35:11.535Z,7.90
2023-03-20T05:37:39.511Z,7.80
2023-03-20T05:40:07.373Z,7.80
2023-03-20T05:42:34.796Z,7.90
2023-03-20T05:45:01.844Z,7.80
2023-03-20T05:47:28.786Z,7.90
2023-03-20T05:49:55.822Z,7.90
2023-03-20T05:52:23.577Z,7.70
2023-03-20T05:54:51.010Z,7.80
2023-03-20T05:57:18.121Z,7.80
2023-03-20T05:59:45.596Z,7.70
2023-03-20T06:02:12.952Z,7.80
2023-03-20T06:04:39.929Z,7.80
2023-03-20T06:07:07.435Z,7.80
2023-03-20T06:09:34.448Z,7.80
2023-03-20T06:12:01.513Z,7.80
2023-03-20T06:14:28.423Z,7.80
2023-03-20T06:16:57.103Z,7.80
2023-03-20T06:19:24.421Z,7.80
2023-03-20T06:21:51.540Z,7.80
2023-03-20T06:24:18.653Z,7.80
2023-03-20T06:26:45.570Z,7.80
2023-03-20T06:29:12.612Z,7.80
2023-03-20T06:31:39.605Z,7.90
2023-03-20T06:34:06.474Z,7.90
2023-03-20T06:36:33.589Z,7.90
2023-03-20T06:39:00.698Z,7.90
2023-03-20T06:41:34.687Z,8.00
2023-03-20T06:44:02.619Z,8.00
2023-03-20T06:46:29.583Z,8.10
2023-03-20T06:48:56.766Z,8.10
2023-03-20T06:51:23.623Z,8.10
2023-03-20T06:53:51.217Z,8.10
2023-03-20T06:56:18.334Z,8.10
2023-03-20T06:58:45.923Z,8.30
2023-03-20T07:01:16.042Z,8.30
2023-03-20T07:03:43.681Z,8.30
2023-03-20T07:06:12.278Z,8.40
2023-03-20T07:08:39.982Z,8.40
2023-03-20T07:11:08.093Z,8.30
2023-03-20T07:13:35.028Z,8.30
2023-03-20T07:16:04.819Z,8.40
2023-03-20T07:18:32.526Z,8.50
2023-03-20T07:21:05.220Z,8.50
2023-03-20T07:23:34.419Z,8.60
2023-03-20T07:26:01.473Z,8.70
2023-03-20T07:28:28.551Z,8.70
2023-03-20T07:30:56.386Z,8.70
2023-03-20T07:33:23.272Z,8.90
2023-03-20T07:35:54.698Z,9.00
2023-03-20T07:38:22.604Z,9.00
2023-03-20T07:40:49.989Z,9.20
2023-03-20T07:43:17.331Z,9.40
2023-03-20T07:45:44.345Z,9.50
2023-03-20T07:48:12.006Z,9.60
2023-03-20T07:50:38.898Z,9.70
2023-03-20T07:53:05.868Z,9.80
2023-03-20T07:55:32.856Z,9.80
2023-03-20T07:57:59.804Z,9.90
2023-03-20T08:00:28.231Z,9.90
2023-03-20T08:02:57.110Z,9.90
2023-03-20T08:05:24.916Z,10.00
2023-03-20T08:07:51.960Z,10.00
2023-03-20T08:10:19.106Z,9.90
2023-03-20T08:12:46.060Z,9.90
2023-03-20T08:15:13.430Z,10.00
2023-03-20T08:17:44.692Z,10.00
2023-03-20T08:20:13.704Z,9.90
2023-03-20T08:22:41.462Z,10.00
2023-03-20T08:25:09.395Z,10.00
2023-03-20T08:27:37.178Z,10.00
2023-03-20T08:30:04.901Z,10.10
2023-03-20T08:32:31.834Z,10.10
2023-03-20T08:34:58.660Z,10.10
2023-03-20T08:37:25.719Z,10.20
2023-03-20T08:39:52.574Z,10.10
2023-03-20T08:42:20.086Z,10.20
2023-03-20T08:44:48.207Z,10.10
2023-03-20T08:47:16.286Z,10.10
2023-03-20T08:49:43.741Z,10.10
2023-03-20T08:52:10.892Z,10.20
2023-03-20T08:54:38.038Z,10.20
2023-03-20T08:57:04.910Z,10.20
2023-03-20T08:59:33.274Z,10.20
2023-03-20T09:02:00.471Z,10.30
2023-03-20T09:04:28.121Z,10.20
2023-03-20T09:06:55.307Z,10.20
2023-03-20T09:09:27.344Z,10.20
2023-03-20T09:11:54.167Z,10.20
2023-03-20T09:14:21.191Z,10.10
2023-03-20T09:16:48.253Z,10.10
2023-03-20T09:19:15.333Z,10.10
2023-03-20T09:21:42.331Z,10.20
2023-03-20T09:24:09.500Z,10.30
2023-03-20T09:26:37.081Z,10.30
2023-03-20T09:29:04.948Z,10.40
2023-03-20T09:31:32.437Z,10.40
2023-03-20T09:33:59.565Z,10.50
2023-03-20T09:36:26.559Z,10.50
2023-03-20T09:38:53.619Z,10.50
2023-03-20T09:41:23.037Z,10.50
2023-03-20T09:44:19.165Z,10.50
2023-03-20T09:47:21.857Z,10.60
2023-03-20T09:50:00.214Z,10.60
2023-03-20T09:52:50.280Z,10.60
2023-03-20T09:55:22.395Z,10.60
2023-03-20T09:58:02.716Z,10.70
2023-03-20T10:00:33.243Z,10.80
2023-03-20T10:03:43.347Z,10.80
2023-03-20T10:06:16.786Z,10.90
2023-03-20T10:08:46.093Z,11.00
2023-03-20T10:11:35.255Z,11.10
2023-03-20T10:14:18.788Z,11.10
2023-03-20T10:17:11.860Z,11.00
2023-03-20T10:19:42.201Z,11.10
2023-03-20T10:22:32.865Z,11.20
2023-03-20T10:25:23.522Z,11.30
2023-03-20T10:27:57.591Z,11.30
2023-03-20T10:30:34.329Z,11.20
2023-03-20T10:33:41.767Z,11.20
2023-03-20T10:36:27.147Z,11.20
2023-03-20T10:39:04.834Z,11.30
2023-03-20T10:41:38.489Z,11.50
2023-03-20T10:44:10.803Z,11.60
2023-03-20T10:46:45.922Z,11.60
2023-03-20T10:49:34.725Z,11.60
2023-03-20T10:52:14.494Z,11.70
2023-03-20T10:54:44.271Z,11.80
2023-03-20T10:57:33.945Z,11.70
2023-03-20T11:00:00.958Z,11.60
2023-03-20T11:02:31.233Z,11.50
2023-03-20T11:05:01.897Z,11.50
2023-03-20T11:07:32.207Z,11.50
2023-03-20T11:10:05.245Z,11.50
2023-03-20T11:12:43.211Z,11.60
2023-03-20T11:15:18.690Z,11.80
2023-03-20T11:17:52.839Z,11.80
2023-03-20T11:20:19.743Z,11.90
2023-03-20T11:22:49.295Z,11.90
2023-03-20T11:26:00.784Z,11.80
2023-03-20T11:28:43.712Z,11.50
2023-03-20T11:31:26.293Z,11.50
2023-03-20T11:34:06.848Z,11.30
2023-03-20T11:36:37.667Z,11.30
2023-03-20T11:39:16.899Z,11.30
2023-03-20T11:41:50.728Z,11.20
2023-03-20T11:44:31.026Z,11.20
2023-03-20T11:47:06.244Z,11.10
2023-03-20T11:49:45.701Z,11.10
2023-03-20T11:52:14.920Z,11.00
2023-03-20T11:54:49.922Z,11.00
2023-03-20T11:57:38.377Z,10.90
2023-03-20T12:00:07.308Z,10.90
2023-03-20T12:02:37.201Z,10.80
2023-03-20T12:05:39.939Z,10.80
2023-03-20T12:08:17.399Z,10.80
2023-03-20T12:10:51.498Z,10.90
2023-03-20T12:13:27.021Z,10.80
2023-03-20T12:16:04.976Z,11.00
2023-03-20T12:18:37.506Z,11.20
2023-03-20T12:21:27.631Z,11.30
2023-03-20T12:24:41.398Z,11.40
2023-03-20T12:27:18.498Z,11.50
2023-03-20T12:29:55.425Z,11.40
2023-03-20T12:32:51.117Z,11.20
2023-03-20T12:35:31.906Z,11.00
2023-03-20T12:37:59.454Z,10.90
2023-03-20T12:40:44.602Z,11.00
2023-03-20T12:43:41.577Z,11.20
2023-03-20T12:46:23.404Z,11.30
2023-03-20T12:48:57.416Z,11.40
2023-03-20T12:51:44.609Z,11.40
2023-03-20T12:54:33.721Z,11.40
2023-03-20T12:57:12.474Z,11.50
2023-03-20T13:00:23.641Z,11.50
2023-03-20T13:02:56.530Z,11.70
2023-03-20T13:05:36.959Z,11.60
2023-03-20T13:08:12.752Z,11.70
2023-03-20T13:10:42.081Z,11.80
2023-03-20T13:13:21.570Z,11.70
2023-03-20T13:16:10.443Z,11.70
2023-03-20T13:18:57.254Z,11.50
2023-03-20T13:21:57.314Z,11.30
2023-03-20T13:24:33.625Z,11.20
2023-03-20T13:27:22.563Z,11.30
2023-03-20T13:30:09.747Z,11.40
2023-03-20T13:32:52.369Z,11.40
2023-03-20T13:35:30.949Z,11.50
2023-03-20T13:38:03.990Z,11.50
2023-03-20T13:40:35.668Z,11.60
2023-03-20T13:43:05.647Z,11.50
2023-03-20T13:45:40.029Z,11.50
2023-03-20T13:48:34.991Z,11.50
2023-03-20T13:51:12.053Z,11.40
2023-03-20T13:53:45.927Z,11.50
2023-03-20T13:56:13.133Z,11.50
2023-03-20T13:58:53.071Z,11.60
2023-03-20T14:01:34.526Z,11.50
2023-03-20T14:04:03.096Z,11.20
2023-03-20T14:06:44.493Z,11.20
2023-03-20T14:09:32.334Z,11.10
2023-03-20T14:12:11.616Z,11.20
2023-03-20T14:14:43.116Z,11.10
2023-03-20T14:17:17.764Z,11.20
2023-03-20T14:19:45.664Z,11.30
2023-03-20T14:22:19.042Z,11.30
2023-03-20T14:24:52.683Z,11.20
2023-03-20T14:27:36.775Z,11.10
2023-03-20T14:30:44.953Z,11.00
2023-03-20T14:33:18.117Z,11.00
2023-03-20T14:35:50.083Z,11.00
2023-03-20T14:38:30.282Z,11.10
2023-03-20T14:41:24.330Z,11.10
2023-03-20T14:43:52.249Z,11.10
2023-03-20T14:46:37.635Z,11.00
2023-03-20T14:49:35.743Z,11.00
2023-03-20T14:52:30.740Z,10.90
2023-03-20T14:55:20.305Z,10.80
2023-03-20T14:57:56.520Z,10.80
2023-03-20T15:00:27.676Z,10.80
2023-03-20T15:03:06.426Z,10.80
2023-03-20T15:05:36.638Z,10.80
2023-03-20T15:08:17.888Z,10.80
2023-03-20T15:10:50.486Z,10.70
2023-03-20T15:13:18.220Z,10.70
2023-03-20T15:15:56.139Z,10.60
2023-03-20T15:18:25.925Z,10.50
2023-03-20T15:20:55.521Z,10.50
2023-03-20T15:23:22.357Z,10.50
2023-03-20T15:25:50.783Z,10.60
2023-03-20T15:28:26.736Z,10.70
2023-03-20T15:30:57.965Z,10.60
2023-03-20T15:33:32.907Z,10.60
2023-03-20T15:36:09.052Z,10.50
2023-03-20T15:38:36.590Z,10.50
2023-03-20T15:41:08.339Z,10.50
2023-03-20T15:43:36.892Z,10.40
2023-03-20T15:46:17.837Z,10.50
2023-03-20T15:48:49.864Z,10.40
2023-03-20T15:51:17.939Z,10.40
2023-03-20T15:53:47.808Z,10.40
2023-03-20T15:56:20.328Z,10.30
2023-03-20T15:58:50.515Z,10.30
2023-03-20T16:01:19.857Z,10.30
2023-03-20T16:03:47.583Z,10.30
2023-03-20T16:06:21.872Z,10.30
2023-03-20T16:09:01.389Z,10.40
2023-03-20T16:11:40.492Z,10.30
2023-03-20T16:14:14.596Z,10.20
2023-03-20T16:16:41.885Z,10.20
2023-03-20T16:19:12.256Z,10.10
2023-03-20T16:21:44.740Z,10.20
2023-03-20T16:24:22.555Z,10.20
2023-03-20T16:26:52.752Z,10.10
2023-03-20T16:29:22.980Z,10.10
2023-03-20T16:32:01.771Z,10.10
2023-03-20T16:34:38.021Z,10.00
2023-03-20T16:37:23.802Z,10.00
2023-03-20T16:40:03.892Z,10.00
2023-03-20T16:42:30.928Z,10.00
2023-03-20T16:44:58.481Z,10.00
2023-03-20T16:47:34.421Z,10.00
2023-03-20T16:50:09.881Z,9.90
2023-03-20T16:52:39.797Z,9.80
2023-03-20T16:55:15.288Z,9.70
2023-03-20T16:57:45.927Z,9.70
2023-03-20T17:00:23.640Z,9.70
2023-03-20T17:02:58.035Z,9.70
2023-03-20T17:05:46.236Z,9.70
2023-03-20T17:08:16.323Z,9.70
2023-03-20T17:10:46.122Z,9.60
2023-03-20T17:13:13.566Z,9.60
2023-03-20T17:15:40.765Z,9.60
2023-03-20T17:18:14.351Z,9.60
2023-03-20T17:20:41.725Z,9.60
2023-03-20T17:23:19.346Z,9.60
2023-03-20T17:25:46.374Z,9.50
2023-03-20T17:28:20.481Z,9.50
2023-03-20T17:30:49.510Z,9.50
2023-03-20T17:33:19.077Z,9.50
2023-03-20T17:35:46.169Z,9.50
2023-03-20T17:38:21.871Z,9.50
2023-03-20T17:40:50.323Z,9.50
2023-03-20T17:43:18.913Z,9.50
2023-03-20T17:45:47.594Z,9.50
2023-03-20T17:48:18.741Z,9.60
2023-03-20T17:50:46.535Z,9.60
2023-03-20T17:53:25.534Z,9.50
2023-03-20T17:55:52.965Z,9.50
2023-03-20T17:58:22.750Z,9.50
2023-03-20T18:00:54.755Z,9.50
2023-03-20T18:03:21.971Z,9.40
2023-03-20T18:05:50.978Z,9.50
2023-03-20T18:08:23.256Z,9.50
2023-03-20T18:10:52.132Z,9.50
2023-03-20T18:13:21.440Z,9.50
2023-03-20T18:15:49.732Z,9.50
2023-03-20T18:18:16.956Z,9.40
2023-03-20T18:20:45.627Z,9.40
2023-03-20T18:23:12.961Z,9.50
2023-03-20T18:25:40.993Z,9.50
2023-03-20T18:28:15.047Z,9.50
2023-03-20T18:30:42.228Z,9.50
2023-03-20T18:33:09.193Z,9.50
2023-03-20T18:35:37.105Z,9.50
2023-03-20T18:38:04.694Z,9.50
2023-03-20T18:40:35.331Z,9.50
2023-03-20T18:43:03.223Z,9.50
2023-03-20T18:45:31.267Z,9.50
2023-03-20T18:47:59.103Z,9.50
2023-03-20T18:50:29.740Z,9.60
2023-03-20T18:52:58.621Z,9.60
2023-03-20T18:55:28.033Z,9.60
2023-03-20T18:57:55.436Z,9.60
2023-03-20T19:00:25.473Z,9.60
2023-03-20T19:02:57.385Z,9.60
2023-03-20T19:05:26.779Z,9.60
2023-03-20T19:07:53.988Z,9.60
2023-03-20T19:10:36.874Z,9.60
2023-03-20T19:13:07.131Z,9.70
2023-03-20T19:15:36.876Z,9.60
2023-03-20T19:18:06.440Z,9.60
2023-03-20T19:20:50.772Z,9.60
2023-03-20T19:23:22.348Z,9.60
2023-03-20T19:25:51.610Z,9.60
2023-03-20T19:28:38.599Z,9.60
2023-03-20T19:31:07.202Z,9.60
2023-03-20T19:33:34.593Z,9.60
2023-03-20T19:36:03.990Z,9.60
2023-03-20T19:38:32.530Z,9.60
2023-03-20T19:41:00.294Z,9.70
2023-03-20T19:43:29.083Z,9.70
2023-03-20T19:45:59.074Z,9.70
2023-03-20T19:48:46.782Z,9.70
2023-03-20T19:51:20.883Z,9.60
2023-03-20T19:53:48.762Z,9.60
2023-03-20T19:56:17.712Z,9.60
2023-03-20T19:58:44.632Z,9.60
2023-03-20T20:01:18.194Z,9.70
2023-03-20T20:03:46.158Z,9.70
2023-03-20T20:06:13.666Z,9.70
2023-03-20T20:08:49.457Z,9.70
2023-03-20T20:11:21.344Z,9.60
2023-03-20T20:14:05.653Z,9.60
2023-03-20T20:16:35.568Z,9.70
2023-03-20T20:19:02.743Z,9.70
2023-03-20T20:24:16.814Z,9.70
2023-03-20T20:26:54.370Z,9.70
2023-03-20T20:29:24.859Z,9.70
2023-03-20T20:31:52.031Z,9.70
2023-03-20T20:39:57.149Z,9.60
2023-03-20T20:42:24.645Z,9.60
2023-03-20T20:44:51.636Z,9.60
2023-03-20T20:47:18.675Z,9.60
2023-03-20T20:49:49.384Z,9.60
2023-03-20T20:52:16.403Z,9.60
2023-03-20T20:54:43.605Z,9.60
2023-03-20T20:57:11.939Z,9.60
2023-03-20T20:59:40.434Z,9.70
2023-03-20T21:02:11.829Z,9.60
2023-03-20T21:04:43.662Z,9.70
2023-03-20T21:07:12.850Z,9.70
2023-03-20T21:09:40.805Z,9.70
2023-03-20T21:12:10.591Z,9.70
2023-03-20T21:14:37.816Z,9.70
2023-03-20T21:17:06.189Z,9.80
2023-03-20T21:19:37.184Z,9.80
2023-03-20T21:22:06.118Z,9.80
2023-03-20T21:24:35.235Z,9.70
2023-03-20T21:27:07.251Z,9.80
2023-03-20T21:29:34.804Z,9.80
2023-03-20T21:32:01.815Z,9.80
2023-03-20T21:34:29.341Z,9.80
2023-03-20T21:36:57.872Z,9.80
2023-03-20T21:39:28.551Z,9.80
2023-03-20T21:41:55.606Z,9.80
2023-03-20T21:45:01.016Z,9.90
2023-03-20T21:48:01.015Z,9.80
2023-03-20T21:50:42.099Z,9.80
2023-03-20T21:53:17.912Z,9.90
2023-03-20T21:56:23.573Z,9.90
2023-03-20T22:01:45.937Z,9.90
2023-03-20T22:13:00.378Z,9.90
2023-03-20T22:21:29.678Z,10.00
2023-03-20T22:29:48.237Z,10.10
2023-03-20T22:32:38.465Z,10.10
2023-03-20T22:38:08.487Z,10.10
2023-03-20T22:41:18.408Z,10.10
2023-03-20T22:44:04.403Z,10.10
2023-03-20T22:46:07.621Z,10.10
2023-03-20T22:48:36.686Z,10.10
2023-03-20T22:51:03.625Z,10.20
2023-03-20T22:53:32.191Z,10.20
2023-03-20T22:56:00.210Z,10.20
2023-03-20T22:58:26.898Z,10.30
2023-03-20T23:00:56.657Z,10.30
2023-03-20T23:03:39.867Z,10.30
2023-03-20T23:06:15.897Z,10.30
2023-03-20T23:08:50.872Z,10.40
2023-03-20T23:11:21.464Z,10.40
2023-03-20T23:13:49.097Z,10.40
2023-03-20T23:16:15.919Z,10.30
2023-03-20T23:18:42.741Z,10.40
2023-03-20T23:21:10.253Z,10.40
2023-03-20T23:23:37.277Z,10.40
2023-03-20T23:26:06.751Z,10.40
2023-03-20T23:28:34.359Z,10.40
2023-03-20T23:31:13.397Z,10.40
2023-03-20T23:33:40.694Z,10.50
2023-03-20T23:36:24.733Z,10.50
2023-03-20T23:38:55.623Z,10.50
2023-03-20T23:41:38.965Z,10.50
2023-03-20T23:44:09.170Z,10.50
2023-03-20T23:46:35.984Z,10.50
2023-03-20T23:49:02.906Z,10.50
2023-03-20T23:51:29.602Z,10.60
2023-03-20T23:53:56.242Z,10.70
2023-03-20T23:56:23.275Z,10.60
2023-03-20T23:58:58.256Z,10.60
